createdAt,value
2017-09-11T00:01:09.668Z,95133.41
2017-09-11T00:03:37.212Z,95135.14
2017-09-11T00:06:04.745Z,95141.28
2017-09-11T00:08:32.336Z,95137.56
2017-09-11T00:10:59.900Z,95139.33
2017-09-11T00:13:27.489Z,95152.63
2017-09-11T00:15:55.091Z,95146.21
2017-09-11T00:18:22.641Z,95159.90
2017-09-11T00:20:50.162Z,95162.41
2017-09-11T00:23:17.738Z,95158.94
2017-09-11T00:25:45.312Z,95150.53
2017-09-11T00:28:12.857Z,95155.02
2017-09-11T00:30:40.712Z,95150.92
2017-09-11T00:33:08.222Z,95151.89
2017-09-11T00:35:35.772Z,95148.97
2017-09-11T00:38:03.344Z,95151.91
2017-09-11T00:40:30.946Z,95152.72
2017-09-11T00:42:58.509Z,95152.30
2017-09-11T00:45:26.141Z,95153.09
2017-09-11T00:47:53.687Z,95151.16
2017-09-11T00:50:21.298Z,95143.14
2017-09-11T00:52:48.885Z,95145.27
2017-09-11T00:55:16.455Z,95147.03
2017-09-11T00:57:43.981Z,95147.03
2017-09-11T01:00:11.693Z,95144.09
2017-09-11T01:02:39.244Z,95143.71
2017-09-11T01:05:06.864Z,95148.02
2017-09-11T01:07:34.467Z,95146.06
2017-09-11T01:10:02.034Z,95146.27
2017-09-11T01:12:29.820Z,95140.77
2017-09-11T01:14:57.423Z,95142.36
2017-09-11T01:17:24.925Z,95142.94
2017-09-11T01:19:52.460Z,95147.63
2017-09-11T01:22:20.090Z,95143.13
2017-09-11T01:24:47.885Z,95141.94
2017-09-11T01:27:15.717Z,95140.95
2017-09-11T01:29:43.386Z,95130.02
2017-09-11T01:32:10.962Z,95127.30
2017-09-11T01:34:38.485Z,95135.69
2017-09-11T01:37:06.004Z,95124.55
2017-09-11T01:39:33.614Z,95120.63
2017-09-11T01:42:01.382Z,95121.23
2017-09-11T01:44:28.943Z,95125.33
2017-09-11T01:46:56.494Z,95129.63
2017-09-11T01:49:24.070Z,95131.56
2017-09-11T01:51:51.591Z,95134.91
2017-09-11T01:54:19.225Z,95135.89
2017-09-11T01:56:46.825Z,95138.22
2017-09-11T01:59:55.656Z,95134.31
2017-09-11T02:02:23.244Z,95134.50
2017-09-11T02:04:50.781Z,95128.44
2017-09-11T02:07:18.339Z,95127.88
2017-09-11T02:09:45.915Z,95135.88
2017-09-11T02:12:13.448Z,95130.58
2017-09-11T02:14:41.543Z,95138.97
2017-09-11T02:17:09.186Z,95134.08
2017-09-11T02:19:36.810Z,95135.06
2017-09-11T02:22:04.652Z,95142.65
2017-09-11T02:24:32.264Z,95141.06
2017-09-11T02:27:00.010Z,95133.67
2017-09-11T02:29:27.602Z,95130.35
2017-09-11T02:31:55.220Z,95131.74
2017-09-11T02:34:23.090Z,95133.66
2017-09-11T02:36:50.698Z,95131.25
2017-09-11T02:39:18.297Z,95127.69
2017-09-11T02:41:47.081Z,95124.25
2017-09-11T02:44:14.889Z,95127.56
2017-09-11T02:46:42.453Z,95124.47
2017-09-11T02:49:10.008Z,95122.50
2017-09-11T02:51:37.542Z,95119.95
2017-09-11T02:54:05.188Z,95117.02
2017-09-11T02:56:33.045Z,95121.55
2017-09-11T02:59:00.599Z,95121.73
2017-09-11T03:01:28.178Z,95128.55
2017-09-11T03:03:55.711Z,95123.29
2017-09-11T03:06:23.366Z,95125.63
2017-09-11T03:08:51.006Z,95126.40
2017-09-11T03:11:18.529Z,95125.20
2017-09-11T03:13:46.279Z,95127.00
2017-09-11T03:16:13.835Z,95125.05
2017-09-11T03:18:41.341Z,95114.91
2017-09-11T03:21:09.002Z,95120.52
2017-09-11T03:23:36.797Z,95107.18
2017-09-11T03:26:04.358Z,95103.67
2017-09-11T03:28:31.866Z,95116.98
2017-09-11T03:30:59.466Z,95112.54
2017-09-11T03:33:26.988Z,95121.43
2017-09-11T03:35:54.784Z,95113.77
2017-09-11T03:38:22.346Z,95116.17
2017-09-11T03:40:50.217Z,95114.56
2017-09-11T03:43:18.086Z,95124.11
2017-09-11T03:45:45.653Z,95126.09
2017-09-11T03:48:13.205Z,95118.69
2017-09-11T03:50:40.970Z,95115.95
2017-09-11T03:53:08.595Z,95114.77
2017-09-11T03:55:36.170Z,95112.87
2017-09-11T03:58:03.954Z,95119.47
2017-09-11T04:00:31.522Z,95112.05
2017-09-11T04:02:59.041Z,95113.59
2017-09-11T04:05:26.669Z,95114.48
2017-09-11T04:07:54.299Z,95115.17
2017-09-11T04:10:22.063Z,95118.86
2017-09-11T04:12:49.642Z,95113.98
2017-09-11T04:15:17.274Z,95116.75
2017-09-11T04:17:44.845Z,95119.97
2017-09-11T04:20:12.422Z,95126.94
2017-09-11T04:22:40.022Z,95127.73
2017-09-11T04:25:07.785Z,95124.73
2017-09-11T04:27:35.402Z,95126.60
2017-09-11T04:30:04.994Z,95124.89
2017-09-11T04:32:32.574Z,95119.42
2017-09-11T04:35:00.200Z,95125.73
2017-09-11T04:37:27.850Z,95130.14
2017-09-11T04:39:55.475Z,95119.67
2017-09-11T04:42:23.039Z,95107.91
2017-09-11T04:44:50.622Z,95117.85
2017-09-11T04:47:19.768Z,95114.87
2017-09-11T04:49:47.746Z,95111.14
2017-09-11T04:52:15.342Z,95111.14
2017-09-11T04:54:42.934Z,95108.10
2017-09-11T04:57:10.500Z,95113.88
2017-09-11T04:59:38.093Z,95108.14
2017-09-11T05:02:05.677Z,95117.40
2017-09-11T05:04:33.214Z,95115.95
2017-09-11T05:07:00.759Z,95118.22
2017-09-11T05:09:28.339Z,95113.22
2017-09-11T05:11:55.899Z,95121.00
2017-09-11T05:14:23.490Z,95112.77
2017-09-11T05:16:51.083Z,95113.48
2017-09-11T05:19:18.642Z,95110.17
2017-09-11T05:21:46.181Z,95110.78
2017-09-11T05:24:13.799Z,95111.78
2017-09-11T05:26:41.372Z,95109.02
2017-09-11T05:29:08.893Z,95114.30
2017-09-11T05:31:36.491Z,95116.77
2017-09-11T05:34:04.343Z,95115.59
2017-09-11T05:36:31.900Z,95120.30
2017-09-11T05:38:59.498Z,95112.81
2017-09-11T05:41:27.267Z,95120.27
2017-09-11T05:43:54.997Z,95120.90
2017-09-11T05:46:22.549Z,95119.52
2017-09-11T05:48:50.059Z,95122.00
2017-09-11T05:51:18.267Z,95113.53
2017-09-11T05:53:46.097Z,95109.00
2017-09-11T05:56:13.640Z,95098.25
2017-09-11T05:58:41.210Z,95095.78
2017-09-11T06:01:08.980Z,95101.37
2017-09-11T06:03:36.553Z,95105.83
2017-09-11T06:06:04.090Z,95103.14
2017-09-11T06:08:32.266Z,95097.23
2017-09-11T06:10:59.840Z,95101.66
2017-09-11T06:13:27.665Z,95099.28
2017-09-11T06:15:55.735Z,95098.89
2017-09-11T06:18:23.378Z,95099.11
2017-09-11T06:20:51.172Z,95098.09
2017-09-11T06:23:18.985Z,95092.60
2017-09-11T06:25:46.566Z,95077.77
2017-09-11T06:28:14.128Z,95080.90
2017-09-11T06:30:41.767Z,95078.42
2017-09-11T06:33:09.291Z,95082.53
2017-09-11T06:35:36.810Z,95082.80
2017-09-11T06:38:04.430Z,95085.48
2017-09-11T06:40:32.025Z,95089.07
2017-09-11T06:42:59.790Z,95087.36
2017-09-11T06:45:27.412Z,95084.25
2017-09-11T06:47:55.633Z,95085.19
2017-09-11T06:50:23.202Z,95086.73
2017-09-11T06:52:50.777Z,95084.16
2017-09-11T06:55:18.349Z,95082.30
2017-09-11T06:57:46.182Z,95082.06
2017-09-11T07:00:13.857Z,95081.60
2017-09-11T07:02:41.386Z,95068.61
2017-09-11T07:05:09.298Z,95068.81
2017-09-11T07:07:36.960Z,95064.60
2017-09-11T07:10:04.493Z,95077.33
2017-09-11T07:12:43.961Z,95076.16
2017-09-11T07:15:11.553Z,95081.32
2017-09-11T07:17:39.070Z,95075.34
2017-09-11T07:20:06.650Z,95066.91
2017-09-11T07:22:34.266Z,95063.91
2017-09-11T07:25:01.809Z,95066.66
2017-09-11T07:27:29.471Z,95066.16
2017-09-11T07:29:56.997Z,95060.45
2017-09-11T07:32:24.742Z,95061.05
2017-09-11T07:34:53.040Z,95052.13
2017-09-11T07:37:20.579Z,95052.17
2017-09-11T07:39:48.169Z,95056.47
2017-09-11T07:42:16.525Z,95061.31
2017-09-11T07:44:44.096Z,95048.63
2017-09-11T07:47:11.724Z,95056.28
2017-09-11T07:49:39.327Z,95056.91
2017-09-11T07:52:06.958Z,95053.86
2017-09-11T07:54:34.560Z,95050.64
2017-09-11T07:57:02.130Z,95046.27
2017-09-11T07:59:29.763Z,95049.05
2017-09-11T08:01:57.357Z,95040.25
2017-09-11T08:04:25.206Z,95049.73
2017-09-11T08:06:52.730Z,95044.39
2017-09-11T08:09:20.322Z,95033.20
2017-09-11T08:11:47.848Z,95032.44
2017-09-11T08:14:15.415Z,95022.70
2017-09-11T08:16:43.071Z,95037.31
2017-09-11T08:19:10.679Z,95034.34
2017-09-11T08:21:38.251Z,95033.69
2017-09-11T08:24:05.813Z,95026.66
2017-09-11T08:26:33.597Z,95028.08
2017-09-11T08:29:01.116Z,95021.30
2017-09-11T08:31:28.668Z,95021.50
2017-09-11T08:33:56.255Z,95010.91
2017-09-11T08:36:23.834Z,95010.27
2017-09-11T08:38:51.945Z,95007.26
2017-09-11T08:41:19.540Z,95000.87
2017-09-11T08:43:47.135Z,94996.59
2017-09-11T08:46:14.808Z,94995.33
2017-09-11T08:48:42.318Z,94998.11
2017-09-11T08:51:10.097Z,94992.38
2017-09-11T08:53:37.685Z,94990.35
2017-09-11T08:56:05.206Z,94982.32
2017-09-11T08:58:33.303Z,94972.33
2017-09-11T09:01:01.354Z,94979.11
2017-09-11T09:03:28.910Z,94967.95
2017-09-11T09:05:56.529Z,94956.27
2017-09-11T09:08:24.296Z,94955.73
2017-09-11T09:10:51.908Z,94943.02
2017-09-11T09:13:19.563Z,94930.38
2017-09-11T09:15:47.187Z,94912.97
2017-09-11T09:18:14.787Z,94908.64
2017-09-11T09:20:42.566Z,94919.71
2017-09-11T09:23:10.157Z,94911.67
2017-09-11T09:25:37.718Z,94910.69
2017-09-11T09:28:05.355Z,94909.50
2017-09-11T09:30:33.807Z,94893.24
2017-09-11T09:33:01.455Z,94893.16
2017-09-11T09:35:29.252Z,94891.38
2017-09-11T09:37:56.919Z,94884.39
2017-09-11T09:40:24.438Z,94881.69
2017-09-11T09:42:52.021Z,94875.75
2017-09-11T09:45:19.649Z,94874.19
2017-09-11T09:47:47.218Z,94861.30
2017-09-11T09:50:14.782Z,94850.70
2017-09-11T09:52:42.399Z,94838.41
2017-09-11T09:55:10.003Z,94832.42
2017-09-11T09:57:37.572Z,94822.70
2017-09-11T10:00:05.995Z,94821.09
2017-09-11T10:02:33.562Z,94814.34
2017-09-11T10:05:01.183Z,94818.31
2017-09-11T10:07:28.757Z,94798.64
2017-09-11T10:09:56.270Z,94806.69
2017-09-11T10:12:23.854Z,94805.94
2017-09-11T10:14:51.456Z,94801.92
2017-09-11T10:17:18.973Z,94810.05
2017-09-11T10:19:46.499Z,94792.09
2017-09-11T10:22:14.051Z,94785.91
2017-09-11T10:24:41.597Z,94772.45
2017-09-11T10:27:09.175Z,94780.16
2017-09-11T10:29:36.762Z,94767.59
2017-09-11T10:32:04.339Z,94773.69
2017-09-11T10:34:32.102Z,94760.69
2017-09-11T10:36:59.657Z,94768.38
2017-09-11T10:39:27.373Z,94762.73
2017-09-11T10:41:54.918Z,94737.34
2017-09-11T10:44:22.488Z,94738.80
2017-09-11T10:46:50.062Z,94741.53
2017-09-11T10:49:17.686Z,94737.86
2017-09-11T10:51:45.252Z,94729.05
2017-09-11T10:54:13.009Z,94731.82
2017-09-11T10:56:40.527Z,94728.98
2017-09-11T10:59:08.065Z,94719.03
2017-09-11T11:01:35.695Z,94733.52
2017-09-11T11:04:03.569Z,94712.95
2017-09-11T11:06:31.153Z,94712.41
2017-09-11T11:08:58.729Z,94711.66
2017-09-11T11:11:26.242Z,94706.86
2017-09-11T11:13:53.766Z,94704.52
2017-09-11T11:16:21.349Z,94706.27
2017-09-11T11:18:48.862Z,94706.58
2017-09-11T11:21:16.423Z,94689.16
2017-09-11T11:23:43.999Z,94680.91
2017-09-11T11:26:11.759Z,94688.61
2017-09-11T11:28:39.278Z,94686.83
2017-09-11T11:31:06.878Z,94677.94
2017-09-11T11:33:34.402Z,94686.86
2017-09-11T11:36:01.956Z,94683.97
2017-09-11T11:38:30.376Z,94679.00
2017-09-11T11:40:57.942Z,94670.83
2017-09-11T11:43:25.529Z,94663.70
2017-09-11T11:45:53.108Z,94662.27
2017-09-11T11:48:20.644Z,94658.42
2017-09-11T11:50:48.177Z,94654.21
2017-09-11T11:53:15.722Z,94657.86
2017-09-11T11:55:43.462Z,94638.86
2017-09-11T11:58:11.046Z,94634.84
2017-09-11T12:00:38.651Z,94624.47
2017-09-11T12:03:06.189Z,94639.28
2017-09-11T12:05:33.772Z,94624.91
2017-09-11T12:08:01.391Z,94609.52
2017-09-11T12:10:28.955Z,94624.07
2017-09-11T12:12:56.707Z,94606.45
2017-09-11T12:15:24.292Z,94619.34
2017-09-11T12:17:52.070Z,94598.27
2017-09-11T12:20:19.628Z,94606.77
2017-09-11T12:22:47.194Z,94608.30
2017-09-11T12:25:14.802Z,94587.23
2017-09-11T12:27:42.398Z,94583.84
2017-09-11T12:30:10.086Z,94581.64
2017-09-11T12:32:37.826Z,94581.33
2017-09-11T12:35:05.342Z,94565.16
2017-09-11T12:37:32.918Z,94579.59
2017-09-11T12:40:00.496Z,94570.11
2017-09-11T12:42:28.025Z,94557.37
2017-09-11T12:44:55.605Z,94566.86
2017-09-11T12:47:23.128Z,94565.73
2017-09-11T12:49:50.636Z,94559.76
2017-09-11T12:52:18.228Z,94563.64
2017-09-11T12:54:45.846Z,94556.44
2017-09-11T12:57:13.447Z,94559.50
2017-09-11T12:59:41.068Z,94579.23
2017-09-11T13:02:08.650Z,94545.38
2017-09-11T13:04:36.182Z,94549.49
2017-09-11T13:07:03.866Z,94547.38
2017-09-11T13:09:31.482Z,94563.34
2017-09-11T13:11:59.429Z,94542.84
2017-09-11T13:14:26.962Z,94547.62
2017-09-11T13:16:54.501Z,94537.55
2017-09-11T13:19:22.072Z,94530.77
2017-09-11T13:21:50.129Z,94534.13
2017-09-11T13:24:17.736Z,94538.36
2017-09-11T13:26:45.465Z,94539.47
2017-09-11T13:29:13.321Z,94524.22
2017-09-11T13:31:40.945Z,94521.87
2017-09-11T13:34:08.461Z,94521.82
2017-09-11T13:36:35.964Z,94520.02
2017-09-11T13:39:03.538Z,94518.26
2017-09-11T13:41:31.095Z,94514.38
2017-09-11T13:43:58.630Z,94506.41
2017-09-11T13:46:26.255Z,94501.91
2017-09-11T13:48:54.029Z,94507.72
2017-09-11T13:51:21.614Z,94505.58
2017-09-11T13:53:49.165Z,94511.95
2017-09-11T13:56:16.894Z,94506.02
2017-09-11T13:58:44.422Z,94506.58
2017-09-11T14:01:11.972Z,94486.01
2017-09-11T14:03:39.481Z,94498.09
2017-09-11T14:06:07.001Z,94488.98
2017-09-11T14:08:35.478Z,94486.28
2017-09-11T14:11:03.105Z,94484.22
2017-09-11T14:13:30.829Z,94475.25
2017-09-11T14:15:58.459Z,94478.81
2017-09-11T14:18:27.218Z,94467.67
2017-09-11T14:20:54.786Z,94460.89
2017-09-11T14:23:22.414Z,94460.45
2017-09-11T14:25:50.459Z,94451.45
2017-09-11T14:28:18.009Z,94446.87
2017-09-11T14:30:45.703Z,94472.80
2017-09-11T14:33:13.306Z,94455.33
2017-09-11T14:35:41.155Z,94463.79
2017-09-11T14:38:08.889Z,94453.63
2017-09-11T14:40:36.482Z,94448.06
2017-09-11T14:43:04.087Z,94457.89
2017-09-11T14:45:31.681Z,94444.11
2017-09-11T14:47:59.267Z,94445.75
2017-09-11T14:50:26.838Z,94458.80
2017-09-11T14:52:54.488Z,94459.95
2017-09-11T14:55:22.036Z,94459.91
2017-09-11T14:57:49.586Z,94451.32
2017-09-11T15:00:17.197Z,94440.31
2017-09-11T15:02:44.872Z,94441.38
2017-09-11T15:05:12.705Z,94437.25
2017-09-11T15:07:40.332Z,94459.39
2017-09-11T15:10:08.341Z,94435.13
2017-09-11T15:12:35.875Z,94429.67
2017-09-11T15:15:03.509Z,94427.17
2017-09-11T15:17:31.197Z,94427.53
2017-09-11T15:19:58.738Z,94422.63
2017-09-11T15:22:26.294Z,94407.48
2017-09-11T15:24:53.797Z,94406.37
2017-09-11T15:27:21.451Z,94401.80
2017-09-11T15:29:49.000Z,94383.05
2017-09-11T15:32:16.670Z,94373.08
2017-09-11T15:34:44.223Z,94363.44
2017-09-11T15:37:11.765Z,94349.04
2017-09-11T15:39:39.725Z,94358.39
2017-09-11T15:42:07.306Z,94364.00
2017-09-11T15:44:34.830Z,94359.20
2017-09-11T15:47:02.423Z,94357.37
2017-09-11T15:49:56.296Z,94343.81
2017-09-11T15:52:24.426Z,94349.39
2017-09-11T15:54:52.193Z,94362.14
2017-09-11T15:57:20.034Z,94347.93
2017-09-11T15:59:47.632Z,94331.85
2017-09-11T16:02:15.924Z,94341.12
2017-09-11T16:04:43.433Z,94343.09
2017-09-11T16:07:10.989Z,94321.58
2017-09-11T16:09:38.555Z,94345.31
2017-09-11T16:12:06.079Z,94329.19
2017-09-11T16:14:33.789Z,94312.88
2017-09-11T16:17:01.365Z,94312.24
2017-09-11T16:19:29.067Z,94317.22
2017-09-11T16:21:56.599Z,94318.09
2017-09-11T16:24:24.362Z,94325.04
2017-09-11T16:26:52.098Z,94316.26
2017-09-11T16:29:19.707Z,94308.54
2017-09-11T16:31:47.303Z,94308.61
2017-09-11T16:34:14.841Z,94307.96
2017-09-11T16:36:42.375Z,94311.83
2017-09-11T16:39:09.949Z,94307.64
2017-09-11T16:41:37.485Z,94304.96
2017-09-11T16:44:05.222Z,94296.38
2017-09-11T16:46:32.907Z,94308.76
2017-09-11T16:49:00.484Z,94288.64
2017-09-11T16:51:27.995Z,94286.58
2017-09-11T16:53:55.622Z,94308.70
2017-09-11T16:56:23.142Z,94301.23
2017-09-11T16:58:50.745Z,94304.97
2017-09-11T17:01:18.325Z,94301.82
2017-09-11T17:03:46.177Z,94317.77
2017-09-11T17:06:13.700Z,94329.40
2017-09-11T17:08:41.320Z,94345.83
2017-09-11T17:11:09.130Z,94343.77
2017-09-11T17:13:36.700Z,94341.05
2017-09-11T17:16:04.500Z,94342.62
2017-09-11T17:18:32.350Z,94349.43
2017-09-11T17:20:59.942Z,94351.16
2017-09-11T17:23:27.626Z,94335.60
2017-09-11T17:25:55.138Z,94327.73
2017-09-11T17:28:23.218Z,94324.95
2017-09-11T17:30:51.689Z,94319.81
2017-09-11T17:33:19.209Z,94322.59
2017-09-11T17:35:46.734Z,94317.38
2017-09-11T17:38:14.302Z,94334.20
2017-09-11T17:40:42.205Z,94340.76
2017-09-11T17:43:09.727Z,94327.66
2017-09-11T17:45:37.317Z,94332.38
2017-09-11T17:48:04.831Z,94335.22
2017-09-11T17:50:32.397Z,94323.37
2017-09-11T17:52:59.970Z,94326.99
2017-09-11T17:55:27.477Z,94320.23
2017-09-11T17:57:55.217Z,94324.00
2017-09-11T18:00:22.905Z,94317.17
2017-09-11T18:02:50.524Z,94295.02
2017-09-11T18:05:18.337Z,94301.55
2017-09-11T18:07:45.919Z,94298.10
2017-09-11T18:10:13.702Z,94301.33
2017-09-11T18:12:41.263Z,94289.48
2017-09-11T18:15:08.847Z,94293.02
2017-09-11T18:17:36.427Z,94300.17
2017-09-11T18:20:04.023Z,94262.55
2017-09-11T18:22:31.575Z,94275.17
2017-09-11T18:24:59.118Z,94270.41
2017-09-11T18:27:26.685Z,94248.18
2017-09-11T18:29:54.245Z,94260.11
2017-09-11T18:32:21.829Z,94244.00
2017-09-11T18:34:49.670Z,94239.16
2017-09-11T18:37:17.666Z,94263.77
2017-09-11T18:39:45.241Z,94254.44
2017-09-11T18:42:12.750Z,94257.77
2017-09-11T18:44:40.266Z,94245.05
2017-09-11T18:47:07.801Z,94228.92
2017-09-11T18:49:35.410Z,94228.02
2017-09-11T18:52:02.968Z,94248.38
2017-09-11T18:54:30.585Z,94250.06
2017-09-11T18:56:58.119Z,94252.05
2017-09-11T18:59:25.933Z,94259.58
2017-09-11T19:01:53.523Z,94274.05
2017-09-11T19:04:22.241Z,94276.17
2017-09-11T19:06:49.756Z,94276.78
2017-09-11T19:09:17.320Z,94286.42
2017-09-11T19:11:44.864Z,94294.40
2017-09-11T19:14:12.667Z,94297.41
2017-09-11T19:16:40.242Z,94301.13
2017-09-11T19:19:07.793Z,94311.78
2017-09-11T19:21:35.702Z,94317.02
2017-09-11T19:24:04.126Z,94334.11
2017-09-11T19:26:32.742Z,94320.27
2017-09-11T19:29:00.884Z,94325.44
2017-09-11T19:31:28.435Z,94326.28
2017-09-11T19:33:55.964Z,94330.48
2017-09-11T19:36:23.483Z,94315.50
2017-09-11T19:38:51.053Z,94317.34
2017-09-11T19:41:18.833Z,94306.38
2017-09-11T19:43:46.402Z,94301.86
2017-09-11T19:46:13.980Z,94314.59
2017-09-11T19:48:41.497Z,94305.84
2017-09-11T19:51:09.002Z,94302.95
2017-09-11T19:53:36.635Z,94297.90
2017-09-11T19:56:04.184Z,94290.25
2017-09-11T19:58:32.030Z,94310.52
2017-09-11T20:00:59.639Z,94312.52
2017-09-11T20:03:27.780Z,94327.41
2017-09-11T20:05:55.294Z,94306.05
2017-09-11T20:08:22.868Z,94297.47
2017-09-11T20:10:50.618Z,94302.91
2017-09-11T20:13:18.149Z,94293.55
2017-09-11T20:15:45.701Z,94311.37
2017-09-11T20:18:14.037Z,94295.05
2017-09-11T20:20:41.626Z,94304.84
2017-09-11T20:23:09.203Z,94310.72
2017-09-11T20:25:36.734Z,94319.03
2017-09-11T20:28:04.276Z,94309.06
2017-09-11T20:30:31.999Z,94320.16
2017-09-11T20:32:59.543Z,94316.81
2017-09-11T20:35:27.114Z,94291.79
2017-09-11T20:37:54.737Z,94296.19
2017-09-11T20:40:22.315Z,94276.18
2017-09-11T20:42:49.912Z,94290.70
2017-09-11T20:45:17.493Z,94289.79
2017-09-11T20:47:45.048Z,94288.08
2017-09-11T20:50:13.262Z,94301.49
2017-09-11T20:52:40.842Z,94300.02
2017-09-11T20:55:08.617Z,94310.87
2017-09-11T20:57:37.130Z,94316.59
2017-09-11T21:00:08.087Z,94325.50
2017-09-11T21:02:35.653Z,94329.44
2017-09-11T21:05:03.195Z,94324.27
2017-09-11T21:07:30.743Z,94334.61
2017-09-11T21:09:58.285Z,94334.75
2017-09-11T21:12:26.128Z,94333.45
2017-09-11T21:14:53.710Z,94325.41
2017-09-11T21:17:21.221Z,94311.92
2017-09-11T21:19:48.786Z,94312.59
2017-09-11T21:22:16.338Z,94305.13
2017-09-11T21:24:43.872Z,94301.91
2017-09-11T21:27:11.388Z,94305.63
2017-09-11T21:29:38.933Z,94298.80
2017-09-11T21:32:06.501Z,94299.86
2017-09-11T21:34:34.055Z,94297.95
2017-09-11T21:37:01.591Z,94282.59
2017-09-11T21:39:29.161Z,94290.00
2017-09-11T21:41:56.769Z,94288.48
2017-09-11T21:44:24.394Z,94293.19
2017-09-11T21:46:52.027Z,94297.59
2017-09-11T21:49:19.569Z,94296.02
2017-09-11T21:51:47.077Z,94308.75
2017-09-11T21:54:14.652Z,94296.80
2017-09-11T21:56:42.198Z,94296.30
2017-09-11T21:59:09.962Z,94296.37
2017-09-11T22:01:37.859Z,94301.61
2017-09-11T22:04:05.384Z,94292.45
2017-09-11T22:06:33.044Z,94286.39
2017-09-11T22:09:00.669Z,94288.16
2017-09-11T22:11:28.323Z,94280.95
2017-09-11T22:13:55.891Z,94281.27
2017-09-11T22:16:23.524Z,94283.25
2017-09-11T22:18:51.091Z,94278.69
2017-09-11T22:21:18.958Z,94276.63
2017-09-11T22:23:46.545Z,94277.12
2017-09-11T22:26:14.103Z,94271.11
2017-09-11T22:28:41.634Z,94277.69
2017-09-11T22:31:09.265Z,94275.25
2017-09-11T22:33:36.828Z,94269.78
2017-09-11T22:36:04.395Z,94282.95
2017-09-11T22:38:31.953Z,94278.62
2017-09-11T22:40:59.510Z,94273.44
2017-09-11T22:43:27.036Z,94273.30
2017-09-11T22:45:54.633Z,94280.62
2017-09-11T22:48:22.220Z,94268.83
2017-09-11T22:50:49.851Z,94270.13
2017-09-11T22:53:17.459Z,94265.27
2017-09-11T22:55:45.045Z,94262.75
2017-09-11T22:58:12.622Z,94268.45
2017-09-11T23:00:40.371Z,94269.03
2017-09-11T23:03:07.940Z,94267.13
2017-09-11T23:05:35.466Z,94267.00
2017-09-11T23:08:03.083Z,94270.63
2017-09-11T23:10:30.620Z,94264.56
2017-09-11T23:12:58.146Z,94264.66
2017-09-11T23:15:25.763Z,94263.88
2017-09-11T23:17:53.335Z,94276.84
2017-09-11T23:20:20.916Z,94269.53
2017-09-11T23:22:48.535Z,94282.16
2017-09-11T23:25:16.372Z,94279.60
2017-09-11T23:27:43.912Z,94269.05
2017-09-11T23:30:11.470Z,94273.11
2017-09-11T23:32:38.996Z,94277.00
2017-09-11T23:35:06.802Z,94279.33
2017-09-11T23:37:34.415Z,94290.05
2017-09-11T23:40:01.966Z,94285.92
2017-09-11T23:42:29.567Z,94287.40
2017-09-11T23:44:57.150Z,94280.89
2017-09-11T23:47:24.736Z,94295.64
2017-09-11T23:49:52.345Z,94282.98
2017-09-11T23:52:19.893Z,94289.30
2017-09-11T23:54:47.479Z,94292.35
2017-09-11T23:57:15.040Z,94290.17
2017-09-11T23:59:42.666Z,94289.12
